PWSweather.com
Personal Weather Stations
Station Observations
ABQWX
Albuquerque, NM 87110

Albuquerque, NM 87110

Lat: 35.1305, Lon: -106.58571

Elevation: 5210

Station Type: LaCrosse

http://www.albuquerqueweather.info/

High Low Average
Temperature 77.7°F25.4°F 41.2°F5.1°F 59.6°F15.3°F
Dew Point 34.6°F1.4°F 22.9°F-5.1°F 28.3°F-2.1°F
Winds 12.0 mph W19.3 mph W 0.1 mph 0.2 mph 2.8 mph 4.5 mph
Wind Gusts 17.0 mph27.4 mph 0.2 mph0.3 mph 5.2 mph8.4 mph
Humidity 51% 19% 32%
Pressure 29.88 in1011.90 in 29.74 in1007.10 in -
Precipitation 0.00 in0.00 in - -
Hour Temp Dew Point Humidity Winds Wind Gusts Pressure Precip Precip Rate Daily Precip Total
12:00 AM 52.7°F11.5°C 22.9°F-5.1°C 31% 0.1 mph E0.2 kmh E 0.2 mph0.3 kmh 29.85 in1010.8 mb 0.00 in0.0 mm 0.00 in0.0 mm 0.00 in0.0 mm
01:00 AM 49.6°F9.8°C 23.1°F-4.9°C 35% 0.1 mph NE0.2 kmh NE 0.4 mph0.6 kmh 29.86 in1011.2 mb 0.00 in0.0 mm 0.00 in0.0 mm 0.00 in0.0 mm
02:00 AM 47.8°F8.8°C 24.7°F-4.1°C 40% 0.1 mph ESE0.2 kmh ESE 0.4 mph0.6 kmh 29.86 in1011.2 mb 0.00 in0.0 mm 0.00 in0.0 mm 0.00 in0.0 mm
03:00 AM 47.3°F8.5°C 25.9°F-3.4°C 43% 0.8 mph NNW1.3 kmh NNW 2.0 mph3.2 kmh 29.86 in1011.2 mb 0.00 in0.0 mm 0.00 in0.0 mm 0.00 in0.0 mm
04:00 AM 45.5°F7.5°C 25.4°F-3.7°C 45% 0.3 mph WSW0.5 kmh WSW 0.9 mph1.4 kmh 29.87 in1011.5 mb 0.00 in0.0 mm 0.00 in0.0 mm 0.00 in0.0 mm
05:00 AM 43.7°F6.5°C 25.3°F-3.7°C 48% 0.7 mph NW1.1 kmh NW 2.0 mph3.2 kmh 29.86 in1011.2 mb 0.00 in0.0 mm 0.00 in0.0 mm 0.00 in0.0 mm
06:00 AM 42.8°F6.0°C 24.9°F-3.9°C 49% 0.1 mph S0.2 kmh S 0.7 mph1.1 kmh 29.86 in1011.2 mb 0.00 in0.0 mm 0.00 in0.0 mm 0.00 in0.0 mm
07:00 AM 41.2°F5.1°C 24.4°F-4.2°C 51% 0.6 mph WNW1.0 kmh WNW 4.0 mph6.4 kmh 29.88 in1011.9 mb 0.00 in0.0 mm 0.00 in0.0 mm 0.00 in0.0 mm
08:00 AM 44.6°F7.0°C 27.1°F-2.7°C 50% 2.5 mph NW4.0 kmh NW 4.0 mph6.4 kmh 29.88 in1011.9 mb 0.00 in0.0 mm 0.00 in0.0 mm 0.00 in0.0 mm
09:00 AM 52.9°F11.6°C 31.5°F-0.3°C 44% 3.2 mph NW5.1 kmh NW 4.7 mph7.6 kmh 29.88 in1011.9 mb 0.00 in0.0 mm 0.00 in0.0 mm 0.00 in0.0 mm
10:00 AM 62.1°F16.7°C 34.1°F1.2°C 35% 1.8 mph NW2.9 kmh NW 2.9 mph4.7 kmh 29.88 in1011.9 mb 0.00 in0.0 mm 0.00 in0.0 mm 0.00 in0.0 mm
11:00 AM 70.2°F21.2°C 34.6°F1.4°C 27% 4.0 mph S6.4 kmh S 6.7 mph10.8 kmh 29.86 in1011.2 mb 0.00 in0.0 mm 0.00 in0.0 mm 0.00 in0.0 mm
12:00 PM 73.8°F23.2°C 33.6°F0.9°C 23% 3.6 mph SW5.8 kmh SW 8.5 mph13.7 kmh 29.84 in1010.5 mb 0.00 in0.0 mm 0.00 in0.0 mm 0.00 in0.0 mm
01:00 PM 77.7°F25.4°C 33.4°F0.8°C 20% 4.3 mph WNW6.9 kmh WNW 8.3 mph13.4 kmh 29.81 in1009.5 mb 0.00 in0.0 mm 0.00 in0.0 mm 0.00 in0.0 mm
02:00 PM 68.7°F20.4°C 33.4°F0.8°C 27% 8.6 mph S13.8 kmh S 13.9 mph22.4 kmh 29.80 in1009.1 mb 0.00 in0.0 mm 0.00 in0.0 mm 0.00 in0.0 mm
03:00 PM 72.3°F22.4°C 33.5°F0.8°C 24% 3.5 mph SW5.6 kmh SW 10.5 mph16.9 kmh 29.77 in1008.1 mb 0.00 in0.0 mm 0.00 in0.0 mm 0.00 in0.0 mm
04:00 PM 72.0°F22.2°C 28.7°F-1.8°C 20% 12.0 mph W19.3 kmh W 17.0 mph27.4 kmh 29.76 in1007.8 mb 0.00 in0.0 mm 0.00 in0.0 mm 0.00 in0.0 mm
05:00 PM 73.2°F22.9°C 29.7°F-1.3°C 20% 3.9 mph WSW6.3 kmh WSW 6.9 mph11.1 kmh 29.74 in1007.1 mb 0.00 in0.0 mm 0.00 in0.0 mm 0.00 in0.0 mm
06:00 PM 71.6°F22.0°C 27.1°F-2.7°C 19% 7.9 mph WNW12.7 kmh WNW 12.8 mph20.6 kmh 29.75 in1007.5 mb 0.00 in0.0 mm 0.00 in0.0 mm 0.00 in0.0 mm
07:00 PM 69.4°F20.8°C 26.6°F-3.0°C 20% 7.8 mph NW12.6 kmh NW 13.6 mph21.9 kmh 29.75 in1007.5 mb 0.00 in0.0 mm 0.00 in0.0 mm 0.00 in0.0 mm
08:00 PM 67.3°F19.6°C 29.2°F-1.6°C 24% 0.8 mph W1.3 kmh W 1.8 mph2.9 kmh 29.77 in1008.1 mb 0.00 in0.0 mm 0.00 in0.0 mm 0.00 in0.0 mm
09:00 PM 64.4°F18.0°C 26.8°F-2.9°C 24% 0.4 mph W0.6 kmh W 0.9 mph1.4 kmh 29.79 in1008.8 mb 0.00 in0.0 mm 0.00 in0.0 mm 0.00 in0.0 mm
10:00 PM 60.1°F15.6°C 25.0°F-3.9°C 26% 0.6 mph ESE1.0 kmh ESE 1.1 mph1.8 kmh 29.80 in1009.1 mb 0.00 in0.0 mm 0.00 in0.0 mm 0.00 in0.0 mm
11:00 PM 59.5°F15.3°C 27.2°F-2.7°C 29% 0.5 mph E0.8 kmh E 1.1 mph1.8 kmh 29.82 in1009.8 mb 0.00 in0.0 mm 0.00 in0.0 mm 0.00 in0.0 mm